.
WxDataArchive / Data Records for 2014-07-13
2014-07-12 July 2014 2014-07-14

Data Records for Sunday, 13 July 2014

Time	Temp	Chill	HIndex	Humid	Dewpt	 Wind 	HiWind	WindDir	Rain 	Barom
-----	----	-----	------	-----	-----	------	------	-------	-----	-----
00:00	73.9	73.9	73.9	82	68.0	0	1	68	0.00	29.898 
00:05	73.9	73.9	73.9	82	68.0	0	1	68	0.00	29.898 
00:10	73.9	73.9	73.9	83	68.4	0	2	68	0.00	29.898 
00:15	73.9	73.9	73.9	83	68.4	0	1	68	0.00	29.892 
00:20	73.9	73.9	73.9	83	68.4	0	0	---	0.00	29.892 
00:25	73.9	73.9	73.9	83	68.4	0	1	68	0.00	29.892 
00:30	73.9	73.9	73.9	84	68.7	0	1	68	0.00	29.892 
00:35	74.0	74.0	74.0	84	68.8	0	1	68	0.00	29.892 
00:40	74.0	74.0	74.0	84	68.8	0	2	68	0.00	29.892 
00:45	74.0	74.0	74.0	84	68.8	0	3	68	0.00	29.892 
00:50	74.2	74.2	74.2	84	69.0	0	3	270	0.00	29.892 
00:55	74.4	74.4	74.4	84	69.2	0	1	248	0.00	29.892 
01:00	74.4	74.4	74.4	83	68.9	0	2	248	0.00	29.892 
01:05	74.6	74.6	74.6	84	69.4	0	3	248	0.00	29.892 
01:10	74.6	74.6	74.6	83	69.1	0	5	248	0.00	29.892 
01:15	74.7	74.7	74.7	83	69.2	0	2	248	0.00	29.894 
01:20	74.7	74.7	74.7	83	69.2	0	3	270	0.00	29.894 
01:25	74.7	74.7	74.7	83	69.2	0	2	292	0.00	29.894 
01:30	74.7	74.7	74.7	83	69.2	0	1	292	0.00	29.888 
01:35	74.7	74.7	74.7	83	69.2	0	1	292	0.00	29.888 
01:40	74.7	74.7	74.7	83	69.2	0	1	292	0.00	29.888 
01:45	74.9	74.9	74.9	83	69.4	0	4	270	0.00	29.880 
01:50	74.9	74.9	74.9	83	69.4	0	3	270	0.00	29.880 
01:55	74.9	74.9	74.9	83	69.4	0	2	270	0.00	29.880 
02:00	74.9	74.9	74.9	83	69.4	0	3	270	0.00	29.875 
02:05	75.1	75.1	75.2	84	69.9	0	2	270	0.00	29.875 
02:10	75.1	75.1	75.2	84	69.9	0	2	270	0.00	29.875 
02:15	75.1	75.1	75.2	84	69.9	0	3	315	0.00	29.863 
02:20	75.1	75.1	75.2	84	69.9	0	3	338	0.00	29.863 
02:25	75.3	75.3	75.5	84	70.1	1	4	248	0.00	29.863 
02:30	75.3	75.3	75.5	84	70.1	0	1	248	0.00	29.850 
02:35	75.4	75.4	75.7	84	70.2	0	5	315	0.00	29.850 
02:40	75.4	75.4	75.7	84	70.2	0	2	315	0.00	29.850 
02:45	75.4	75.4	75.7	84	70.2	0	3	315	0.00	29.846 
02:50	75.6	75.6	76.0	84	70.4	0	2	315	0.00	29.846 
02:55	75.6	75.6	76.0	84	70.4	1	3	315	0.00	29.846 
03:00	75.8	75.8	76.3	84	70.6	0	2	270	0.00	29.832 
03:05	75.8	75.8	76.3	84	70.6	0	2	270	0.00	29.832 
03:10	76.0	76.0	76.7	84	70.8	0	3	22	0.00	29.832 
03:15	76.0	76.0	76.7	84	70.8	0	1	292	0.00	29.833 
03:20	76.0	76.0	76.7	84	70.8	1	5	292	0.00	29.833 
03:25	76.1	76.1	76.8	84	70.9	0	3	248	0.00	29.833 
03:30	76.1	76.1	76.8	84	70.9	0	3	248	0.00	29.839 
03:35	76.1	76.1	76.8	84	70.9	0	3	248	0.00	29.839 
03:40	76.3	76.3	77.2	84	71.1	1	3	248	0.00	29.839 
03:45	76.3	76.3	77.2	84	71.1	1	4	248	0.00	29.839 
03:50	76.3	76.3	77.2	84	71.1	0	3	248	0.00	29.839 
03:55	76.5	76.5	77.5	84	71.3	0	2	248	0.00	29.839 
04:00	76.5	76.5	77.5	84	71.3	0	1	225	0.00	29.837 
04:05	76.3	76.3	77.2	84	71.1	0	2	225	0.00	29.837 
04:10	76.3	76.3	77.2	84	71.1	0	3	225	0.00	29.837 
04:15	76.3	76.3	77.2	84	71.1	0	2	248	0.00	29.833 
04:20	76.3	76.3	77.2	84	71.1	0	3	248	0.00	29.833 
04:25	76.3	76.3	77.2	84	71.1	0	2	248	0.00	29.833 
04:30	76.3	76.3	77.1	85	71.4	0	5	248	0.00	29.827 
04:35	76.3	76.3	77.1	85	71.4	0	3	22	0.00	29.827 
04:40	76.1	76.1	76.7	85	71.2	0	3	0	0.00	29.827 
04:45	76.1	76.1	76.6	86	71.6	0	4	338	0.00	29.829 
04:50	76.0	76.0	76.5	86	71.5	0	1	270	0.00	29.829 
04:55	75.8	75.8	76.0	87	71.6	0	2	292	0.01	29.829 
05:00	75.6	75.6	75.5	88	71.8	0	1	292	0.00	29.824 
05:05	75.4	75.4	75.1	88	71.6	0	1	292	0.00	29.824 
05:10	75.3	75.3	74.8	89	71.8	0	1	292	0.00	29.824 
05:15	75.1	75.1	74.4	89	71.6	0	2	292	0.00	29.822 
05:20	75.1	75.1	74.4	89	71.6	0	1	292	0.00	29.822 
05:25	74.9	74.9	74.9	90	71.8	0	1	292	0.00	29.822 
05:30	74.9	74.9	74.9	90	71.8	0	1	292	0.00	29.817 
05:35	74.9	74.9	74.9	90	71.8	0	2	292	0.00	29.817 
05:40	74.9	74.9	74.9	90	71.8	0	1	292	0.00	29.817 
05:45	74.9	74.9	74.9	90	71.8	0	1	292	0.00	29.812 
05:50	75.1	75.1	74.3	90	72.0	0	1	292	0.00	29.812 
05:55	75.1	75.1	74.1	91	72.3	0	2	292	0.01	29.812 
06:00	75.1	75.1	74.1	91	72.3	0	1	292	0.00	29.808 
06:05	75.1	75.1	74.1	91	72.3	0	1	292	0.00	29.808 
06:10	75.1	75.1	74.1	91	72.3	0	3	112	0.00	29.808 
06:15	75.3	75.3	74.5	91	72.5	1	2	225	0.00	29.815 
06:20	75.4	75.4	74.7	91	72.6	2	5	270	0.00	29.815 
06:25	75.4	75.4	74.7	91	72.6	0	2	270	0.00	29.815 
06:30	75.4	75.4	74.7	91	72.6	0	2	270	0.00	29.818 
06:35	75.4	75.4	74.7	91	72.6	1	4	270	0.00	29.818 
06:40	75.3	75.3	74.7	90	72.2	1	3	270	0.00	29.818 
06:45	75.1	75.1	74.4	89	71.6	2	7	270	0.00	29.824 
06:50	74.7	74.7	74.7	85	69.9	3	10	270	0.00	29.824 
06:55	74.6	74.6	74.6	82	68.7	2	6	248	0.00	29.824 
07:00	74.6	74.6	74.6	79	67.6	3	9	270	0.00	29.824 
07:05	74.6	74.6	74.6	79	67.6	1	5	270	0.00	29.824 
07:10	74.6	74.6	74.6	78	67.3	2	9	270	0.00	29.824 
07:15	74.6	74.6	74.6	78	67.3	2	5	270	0.00	29.829 
07:20	74.4	74.4	74.4	78	67.1	2	7	270	0.00	29.829 
07:25	74.4	74.4	74.4	79	67.4	2	5	270	0.00	29.829 
07:30	74.2	74.2	74.2	79	67.3	3	7	270	0.00	29.842 
07:35	73.9	73.9	73.9	80	67.3	2	7	270	0.00	29.842 
07:40	73.7	73.7	73.7	81	67.5	2	6	270	0.00	29.842 
07:45	73.7	73.7	73.7	81	67.5	3	6	270	0.00	29.841 
07:50	73.7	73.7	73.7	81	67.5	2	6	270	0.00	29.841 
07:55	73.7	73.7	73.7	82	67.9	4	8	270	0.00	29.841 
08:00	73.7	73.7	73.7	82	67.9	3	6	270	0.00	29.838 
08:05	73.7	73.7	73.7	83	68.2	3	6	270	0.00	29.838 
08:10	73.7	73.7	73.7	83	68.2	3	5	292	0.00	29.838 
08:15	73.7	73.7	73.7	84	68.6	2	4	270	0.00	29.846 
08:20	73.9	73.9	73.9	84	68.7	2	5	270	0.00	29.846 
08:25	73.9	73.9	73.9	84	68.7	2	5	270	0.00	29.846 
08:30	73.9	73.9	73.9	88	70.1	2	6	270	0.00	29.850 
08:35	73.9	73.9	73.9	84	68.7	1	3	270	0.00	29.850 
08:40	74.0	74.0	74.0	85	69.2	1	3	270	0.00	29.850 
08:45	74.0	74.0	74.0	84	68.8	2	6	270	0.00	29.859 
08:50	74.0	74.0	74.0	85	69.2	2	4	270	0.00	29.859 
08:55	74.0	74.0	74.0	85	69.2	1	6	270	0.00	29.859 
09:00	74.0	74.0	74.0	85	69.2	1	4	270	0.00	29.861 
09:05	74.0	74.0	74.0	85	69.2	1	3	270	0.00	29.861 
09:10	74.0	74.0	74.0	85	69.2	1	4	270	0.00	29.861 
09:15	74.0	74.0	74.0	86	69.5	0	1	270	0.00	29.864 
09:20	74.0	74.0	74.0	86	69.5	0	1	270	0.00	29.864 
09:25	74.0	74.0	74.0	86	69.5	0	2	270	0.00	29.864 
09:30	74.0	74.0	74.0	86	69.5	1	4	270	0.00	29.872 
09:35	74.0	74.0	74.0	86	69.5	0	2	270	0.00	29.872 
09:40	74.2	74.2	74.2	86	69.7	0	3	270	0.00	29.872 
09:45	74.2	74.2	74.2	86	69.7	0	3	270	0.00	29.877 
09:50	74.2	74.2	74.2	86	69.7	0	2	270	0.00	29.877 
09:55	74.4	74.4	74.4	86	69.9	0	3	270	0.00	29.877 
10:00	74.4	74.4	74.4	86	69.9	1	3	270	0.00	29.877 
10:05	74.7	74.7	74.7	85	69.9	1	3	270	0.00	29.877 
10:10	75.3	75.3	75.4	85	70.5	1	3	270	0.00	29.877 
10:15	75.6	75.6	76.0	84	70.4	1	4	270	0.00	29.875 
10:20	76.0	76.0	76.7	83	70.4	1	4	270	0.00	29.875 
10:25	76.1	76.1	77.1	81	69.8	1	4	270	0.00	29.875 
10:30	76.7	76.7	78.0	81	70.4	1	3	292	0.00	29.864 
10:35	76.8	76.8	78.3	78	69.4	2	4	292	0.00	29.864 
10:40	76.8	76.8	78.4	77	69.0	3	5	292	0.00	29.864 
10:45	76.8	76.8	78.4	77	69.0	2	5	292	0.00	29.860 
10:50	77.2	77.2	79.0	77	69.4	2	5	292	0.00	29.860 
10:55	77.6	77.6	79.6	77	69.8	2	4	292	0.00	29.860 
11:00	77.2	77.2	79.0	74	68.3	3	6	292	0.00	29.866 
11:05	76.8	76.8	78.4	76	68.6	2	6	270	0.00	29.866 
11:10	77.0	77.0	78.7	77	69.2	2	6	338	0.00	29.866 
11:15	77.0	77.0	78.7	77	69.2	1	4	338	0.00	29.868 
11:20	76.5	76.5	78.0	76	68.4	3	6	338	0.00	29.868 
11:25	76.1	76.1	77.5	75	67.6	2	7	292	0.00	29.868 
11:30	75.8	75.8	77.0	76	67.7	2	4	292	0.00	29.874 
11:35	76.1	76.1	77.4	76	68.0	2	6	315	0.00	29.874 
11:40	76.5	76.5	78.0	75	68.0	2	4	315	0.00	29.874 
11:45	76.7	76.7	78.2	76	68.5	1	3	315	0.00	29.880 
11:50	76.8	76.8	78.4	75	68.3	2	5	270	0.00	29.880 
11:55	76.8	76.8	78.4	74	67.9	2	5	270	0.00	29.880 
12:00	77.0	77.0	78.7	73	67.7	2	4	270	0.00	29.881 
12:05	77.0	77.0	78.7	74	68.1	2	4	315	0.00	29.881 
12:10	77.4	77.4	79.3	73	68.0	1	4	292	0.00	29.881 
12:15	77.9	77.9	80.0	73	68.5	1	3	292	0.00	29.878 
12:20	78.6	78.6	81.0	72	68.8	1	3	292	0.00	29.878 
12:25	78.8	78.8	81.3	72	69.0	1	3	292	0.00	29.878 
12:30	78.6	78.6	80.9	71	68.4	1	4	292	0.00	29.880 
12:35	78.6	78.6	81.0	72	68.8	1	4	292	0.00	29.880 
12:40	78.6	78.6	81.0	73	69.2	1	3	315	0.00	29.880 
12:45	79.0	79.0	81.4	70	68.4	1	4	315	0.00	29.878 
12:50	79.4	79.4	81.8	68	67.9	1	4	315	0.00	29.878 
12:55	79.4	79.4	81.8	68	67.9	2	5	292	0.00	29.878 
13:00	79.8	79.8	82.5	69	68.7	1	3	292	0.00	29.873 
13:05	79.8	79.8	82.3	67	67.8	2	5	292	0.00	29.873 
13:10	80.3	80.3	82.8	65	67.4	2	4	292	0.00	29.873 
13:15	80.1	80.1	82.4	64	66.8	2	7	315	0.00	29.876 
13:20	80.3	80.3	82.7	64	67.0	2	5	270	0.00	29.876 
13:25	80.5	80.5	82.7	62	66.3	2	5	292	0.00	29.876 
13:30	80.7	80.7	82.8	61	66.0	2	5	292	0.00	29.868 
13:35	80.9	80.9	82.9	60	65.7	2	4	270	0.00	29.868 
13:40	81.1	81.1	83.5	62	66.8	2	5	292	0.00	29.868 
13:45	81.1	81.1	83.5	62	66.8	2	5	270	0.00	29.874 
13:50	81.2	81.2	83.5	61	66.4	2	5	292	0.00	29.874 
13:55	81.6	81.6	84.2	62	67.3	1	3	292	0.00	29.874 
14:00	81.8	81.8	84.1	60	66.5	2	4	292	0.00	29.871 
14:05	81.8	81.8	84.1	60	66.5	2	4	270	0.00	29.871 
14:10	82.2	82.2	84.9	61	67.4	2	4	270	0.00	29.871 
14:15	82.4	82.4	84.6	58	66.1	1	4	292	0.00	29.867 
14:20	82.6	82.6	84.7	57	65.8	1	4	292	0.00	29.867 
14:25	82.6	82.6	84.9	58	66.3	1	3	292	0.00	29.867 
14:30	82.6	82.6	84.7	57	65.8	1	3	292	0.00	29.862 
14:35	82.6	82.6	85.1	59	66.8	1	4	292	0.00	29.862 
14:40	82.6	82.6	84.9	58	66.3	1	3	270	0.00	29.862 
14:45	82.4	82.4	84.6	58	66.1	1	4	270	0.00	29.865 
14:50	82.2	82.2	84.3	58	65.9	1	4	315	0.00	29.865 
14:55	82.4	82.4	84.6	58	66.1	2	4	270	0.00	29.865 
15:00	82.6	82.6	84.5	56	65.3	0	2	270	0.00	29.864 
15:05	82.6	82.6	84.5	56	65.3	1	5	270	0.00	29.864 
15:10	82.4	82.4	84.4	57	65.6	2	3	315	0.00	29.864 
15:15	82.2	82.2	84.3	58	65.9	1	4	270	0.00	29.868 
15:20	82.2	82.2	84.3	58	65.9	1	4	270	0.00	29.868 
15:25	82.2	82.2	84.5	59	66.4	2	4	315	0.00	29.868 
15:30	82.4	82.4	84.2	56	65.1	2	4	270	0.00	29.864 
15:35	82.2	82.2	84.2	57	65.4	1	5	338	0.00	29.864 
15:40	82.4	82.4	84.4	57	65.6	1	4	270	0.00	29.864 
15:45	82.6	82.6	84.9	58	66.3	0	2	270	0.00	29.859 
15:50	82.6	82.6	84.7	57	65.8	2	4	292	0.00	29.859 
15:55	82.4	82.4	84.2	56	65.1	1	4	292	0.00	29.859 
16:00	82.2	82.2	84.0	56	64.9	2	3	292	0.00	29.856 
16:05	81.6	81.6	83.4	57	64.9	2	4	315	0.00	29.856 
16:10	81.4	81.4	83.4	59	65.7	2	3	315	0.00	29.856 
16:15	81.6	81.6	83.5	58	65.4	2	4	292	0.00	29.858 
16:20	81.4	81.4	83.6	60	66.2	1	6	270	0.00	29.858 
16:25	81.4	81.4	83.6	60	66.2	2	5	338	0.00	29.858 
16:30	81.8	81.8	84.0	59	66.0	2	4	270	0.00	29.854 
16:35	82.0	82.0	84.4	60	66.7	2	7	270	0.00	29.854 
16:40	82.2	82.2	83.8	55	64.4	2	4	270	0.00	29.854 
16:45	82.2	82.2	83.5	53	63.3	2	4	270	0.00	29.854 
16:50	82.8	82.8	84.0	52	63.3	2	4	292	0.00	29.854 
16:55	83.2	83.2	84.5	52	63.7	2	6	292	0.00	29.854 
17:00	83.0	83.0	83.4	47	60.7	3	5	270	0.00	29.854 
17:05	83.2	83.2	84.0	49	62.0	2	5	292	0.00	29.854 
17:10	83.4	83.4	84.2	49	62.2	1	4	292	0.00	29.854 
17:15	83.8	83.8	84.5	48	62.0	1	4	292	0.00	29.858 
17:20	83.8	83.8	84.1	46	60.8	2	5	292	0.00	29.858 
17:25	83.8	83.8	84.5	48	62.0	1	2	292	0.00	29.858 
17:30	84.0	84.0	85.1	50	63.3	1	3	292	0.00	29.852 
17:35	84.0	84.0	85.1	50	63.3	2	4	292	0.00	29.852 
17:40	83.8	83.8	84.9	50	63.1	1	4	292	0.00	29.852 
17:45	83.8	83.8	84.9	50	63.1	2	5	292	0.00	29.851 
17:50	83.8	83.8	84.5	48	62.0	2	4	270	0.00	29.851 
17:55	83.6	83.6	84.6	50	63.0	1	4	270	0.00	29.851 
18:00	83.0	83.0	84.1	51	63.0	2	4	270	0.00	29.849 
18:05	82.8	82.8	83.8	51	62.8	2	5	270	0.00	29.849 
18:10	82.8	82.8	83.8	51	62.8	2	5	270	0.00	29.849 
18:15	82.4	82.4	83.5	52	63.0	2	4	270	0.00	29.850 
18:20	82.2	82.2	83.3	52	62.8	1	2	270	0.00	29.850 
18:25	81.8	81.8	83.0	53	63.0	1	4	270	0.00	29.850 
18:30	81.6	81.6	82.9	54	63.3	1	4	270	0.00	29.849 
18:35	81.4	81.4	82.7	54	63.1	1	2	270	0.00	29.849 
18:40	81.1	81.1	82.3	54	62.9	1	6	270	0.00	29.849 
18:45	80.9	80.9	82.1	54	62.7	1	3	270	0.00	29.850 
18:50	80.9	80.9	82.3	55	63.2	0	2	270	0.00	29.850 
18:55	81.1	81.1	82.6	56	63.9	0	2	270	0.00	29.850 
19:00	81.2	81.2	82.6	55	63.5	1	3	270	0.00	29.849 
19:05	81.6	81.6	82.9	54	63.3	1	3	270	0.00	29.849 
19:10	81.6	81.6	82.8	53	62.8	2	5	270	0.00	29.849 
19:15	81.4	81.4	82.7	54	63.1	1	3	270	0.00	29.852 
19:20	81.4	81.4	82.8	55	63.7	1	3	270	0.00	29.852 
19:25	81.6	81.6	82.9	54	63.3	0	3	270	0.00	29.852 
19:30	81.6	81.6	82.6	52	62.2	1	3	270	0.00	29.852 
19:35	81.6	81.6	82.6	52	62.2	1	3	270	0.00	29.852 
19:40	81.6	81.6	82.8	53	62.8	0	2	270	0.00	29.852 
19:45	81.6	81.6	82.5	51	61.7	1	3	270	0.00	29.857 
19:50	81.4	81.4	82.5	53	62.6	0	3	270	0.00	29.857 
19:55	81.2	81.2	82.3	53	62.4	0	2	270	0.00	29.857 
20:00	81.1	81.1	82.3	54	62.9	1	3	270	0.00	29.862 
20:05	81.1	81.1	82.3	54	62.9	0	2	270	0.00	29.862 
20:10	81.1	81.1	82.3	54	62.9	1	3	270	0.00	29.862 
20:15	80.9	80.9	82.3	55	63.2	0	2	270	0.00	29.863 
20:20	80.7	80.7	82.0	55	63.0	1	3	270	0.00	29.863 
20:25	80.5	80.5	81.8	55	62.8	0	1	270	0.00	29.863 
20:30	80.3	80.3	81.8	57	63.7	0	2	270	0.00	29.866 
20:35	80.1	80.1	81.6	57	63.5	0	1	270	0.00	29.866 
20:40	79.9	79.9	81.5	58	63.8	0	0	---	0.00	29.866 
20:45	79.8	79.8	81.4	58	63.7	0	0	---	0.00	29.864 
20:50	79.6	79.6	81.3	59	64.0	0	1	270	0.00	29.864 
20:55	79.2	79.2	80.8	59	63.6	0	0	---	0.00	29.864 
21:00	79.0	79.0	80.7	60	63.9	0	0	---	0.00	29.862 
21:05	78.8	78.8	80.5	61	64.2	0	0	---	0.00	29.862 
21:10	78.5	78.5	80.3	62	64.4	0	0	---	0.00	29.862 
21:15	78.1	78.1	79.9	62	64.0	0	0	---	0.00	29.865 
21:20	77.7	77.7	79.5	63	64.1	0	0	---	0.00	29.865 
21:25	77.2	77.2	79.0	64	64.1	0	0	---	0.00	29.865 
21:30	76.8	76.8	78.6	65	64.1	0	0	---	0.00	29.867 
21:35	76.5	76.5	78.3	65	63.8	0	0	---	0.00	29.867 
21:40	76.1	76.1	77.9	66	63.9	0	0	---	0.00	29.867 
21:45	75.8	75.8	77.6	67	64.0	0	0	---	0.00	29.866 
21:50	75.4	75.4	77.1	69	64.5	0	0	---	0.00	29.866 
21:55	75.1	75.1	76.9	69	64.2	0	0	---	0.00	29.866 
22:00	74.7	74.7	74.7	70	64.2	0	0	---	0.00	29.869 
22:05	74.4	74.4	74.4	72	64.8	0	0	---	0.00	29.869 
22:10	74.0	74.0	74.0	73	64.8	0	0	---	0.00	29.869 
22:15	73.7	73.7	73.7	73	64.5	0	0	---	0.00	29.868 
22:20	73.3	73.3	73.3	74	64.5	0	0	---	0.00	29.868 
22:25	73.2	73.2	73.2	75	64.8	0	0	---	0.00	29.868 
22:30	73.0	73.0	73.0	77	65.3	0	0	---	0.00	29.870 
22:35	72.7	72.7	72.7	77	65.1	0	0	---	0.00	29.870 
22:40	72.5	72.5	72.5	78	65.2	0	0	---	0.00	29.870 
22:45	72.1	72.1	72.1	78	64.8	0	0	---	0.00	29.873 
22:50	71.8	71.8	71.8	79	64.9	0	0	---	0.00	29.873 
22:55	71.6	71.6	71.6	79	64.7	0	0	---	0.00	29.873 
23:00	71.5	71.5	71.5	80	65.0	0	0	---	0.00	29.870 
23:05	71.3	71.3	71.3	81	65.2	0	0	---	0.00	29.870 
23:10	71.1	71.1	71.1	81	65.0	0	0	---	0.00	29.870 
23:15	71.1	71.1	71.1	81	65.0	0	0	---	0.00	29.866 
23:20	70.9	70.9	70.9	81	64.8	0	0	---	0.00	29.866 
23:25	70.8	70.8	70.8	82	65.0	0	1	270	0.00	29.866 
23:30	70.6	70.6	70.6	83	65.2	0	0	---	0.00	29.868 
23:35	70.4	70.4	70.4	83	65.0	0	0	---	0.00	29.868 
23:40	70.3	70.3	70.3	83	64.9	0	0	---	0.00	29.868 
23:45	70.1	70.1	70.1	84	65.0	0	0	---	0.00	29.867 
23:50	69.9	69.9	69.9	84	64.8	0	0	---	0.00	29.867 
23:55	69.8	69.8	69.8	85	65.1	0	0	---	0.00	29.867 

CoCoRaHS
IN-AL-39
A2 Web Hosting
Creative Commons License
GoDaddy
search engine by freefind advanced

loaded 2018-11-21 00:31:20 • last modified 2010-11-18 10:43:29
Privacy PolicyDisclaimer
• wx.awcolley.com is powered by PmWiki v.2002016 •
• all content (unless otherwise noted) © 2018 A W Colley